Time;durP1;ratioP1;P1;durP2;ratioP2;P2;SDS_P1;SDS_P2;PMS_P1;PMS_P2;Temp;Humidity;BMP_temperature;BMP_pressure;BME280_temperature;BME280_humidity;BME280_pressure;Samples;Min_cycle;Max_cycle;Signal;HPM_P1;HPM_P2
2021/09/29 00:00:18;;;;;;;18.50;8.30;;;;;;;;;;10445496;28;20051;-72
2021/09/29 00:05:20;;;;;;;17.17;8.27;;;;;;;;;;10444599;28;20178;-72
2021/09/29 00:10:23;;;;;;;17.80;8.50;;;;;;;;;;10437730;28;20036;-70
2021/09/29 00:15:28;;;;;;;16.20;7.93;;;;;;;;;;10444199;28;20099;-69
2021/09/29 00:20:30;;;;;;;18.17;8.40;;;;;;;;;;10443465;28;20089;-69
2021/09/29 00:25:33;;;;;;;14.73;7.27;;;;;;;;;;10443053;28;20036;-68
2021/09/29 00:30:39;;;;;;;17.37;8.60;;;;;;;;;;10442976;28;20065;-70
2021/09/29 00:35:42;;;;;;;17.05;8.30;;;;;;;;;;10442344;28;20065;-69
2021/09/29 00:40:45;;;;;;;19.63;8.13;;;;;;;;;;10443940;28;20040;-68
2021/09/29 00:45:49;;;;;;;16.53;7.93;;;;;;;;;;10445644;28;20076;-70
2021/09/29 00:50:52;;;;;;;17.50;8.07;;;;;;;;;;10440594;28;20068;-71
2021/09/29 00:55:54;;;;;;;16.97;7.90;;;;;;;;;;10444606;28;20071;-70
2021/09/29 01:00:59;;;;;;;17.80;7.83;;;;;;;;;;10441922;28;20049;-70
2021/09/29 01:06:05;;;;;;;17.25;8.02;;;;;;;;;;10438084;28;20053;-71
2021/09/29 01:11:10;;;;;;;16.40;7.60;;;;;;;;;;10440808;28;20077;-70
2021/09/29 01:16:15;;;;;;;18.75;8.13;;;;;;;;;;10440146;28;20044;-70
2021/09/29 01:21:20;;;;;;;18.60;8.43;;;;;;;;;;10436284;28;20408;-71
2021/09/29 01:26:44;;;;;;;16.70;8.40;;;;;;;;;;10435139;28;20374;-70
2021/09/29 01:31:47;;;;;;;17.65;8.18;;;;;;;;;;10440510;28;20047;-68
2021/09/29 01:36:50;;;;;;;19.33;8.52;;;;;;;;;;10439134;28;20061;-68
2021/09/29 01:41:54;;;;;;;15.85;8.35;;;;;;;;;;10438403;28;20045;-70
2021/09/29 01:46:57;;;;;;;18.50;9.02;;;;;;;;;;10440437;28;20127;-69
2021/09/29 01:52:01;;;;;;;18.67;8.93;;;;;;;;;;10437067;28;20091;-70
2021/09/29 01:57:05;;;;;;;18.85;8.70;;;;;;;;;;10439469;28;20037;-70
2021/09/29 02:02:08;;;;;;;20.83;9.38;;;;;;;;;;10437094;28;20080;-69
2021/09/29 02:07:11;;;;;;;23.23;11.35;;;;;;;;;;10443287;28;20045;-69
2021/09/29 02:12:15;;;;;;;25.27;11.43;;;;;;;;;;10439628;28;20774;-70
2021/09/29 02:17:18;;;;;;;23.27;8.88;;;;;;;;;;10438148;28;20068;-70
2021/09/29 02:22:21;;;;;;;29.70;11.90;;;;;;;;;;10439838;28;20055;-71
2021/09/29 02:27:25;;;;;;;26.77;12.60;;;;;;;;;;10439084;28;20040;-68
2021/09/29 02:32:28;;;;;;;22.52;9.40;;;;;;;;;;10442099;28;20052;-70
2021/09/29 02:37:31;;;;;;;28.27;12.18;;;;;;;;;;10436258;28;20043;-71
2021/09/29 02:42:36;;;;;;;29.52;13.32;;;;;;;;;;10440787;28;20501;-70
2021/09/29 02:47:39;;;;;;;27.60;11.63;;;;;;;;;;10440136;28;20037;-70
2021/09/29 02:52:41;;;;;;;34.27;13.03;;;;;;;;;;10437760;28;20037;-70
2021/09/29 02:57:46;;;;;;;34.05;14.10;;;;;;;;;;10434928;28;20453;-70
2021/09/29 03:02:49;;;;;;;23.33;8.60;;;;;;;;;;10428053;28;20067;-70
2021/09/29 03:07:52;;;;;;;35.10;14.02;;;;;;;;;;10436676;28;20048;-69
2021/09/29 03:12:56;;;;;;;40.70;14.10;;;;;;;;;;10439527;28;20045;-68
2021/09/29 03:17:59;;;;;;;37.35;15.23;;;;;;;;;;10438954;28;20099;-69
2021/09/29 03:23:02;;;;;;;20.40;8.33;;;;;;;;;;10438876;28;20080;-69
2021/09/29 03:28:06;;;;;;;37.42;13.95;;;;;;;;;;10437768;28;20037;-71
2021/09/29 03:33:09;;;;;;;32.38;12.65;;;;;;;;;;10440461;28;20490;-70
2021/09/29 03:38:12;;;;;;;30.07;10.53;;;;;;;;;;10435043;28;20029;-70
2021/09/29 03:43:19;;;;;;;23.37;9.20;;;;;;;;;;10435890;28;20051;-70
2021/09/29 03:48:22;;;;;;;31.77;11.93;;;;;;;;;;10437005;28;20063;-70
2021/09/29 03:53:24;;;;;;;31.95;11.93;;;;;;;;;;10441242;28;20103;-71
2021/09/29 03:58:29;;;;;;;27.20;10.63;;;;;;;;;;10438106;28;20039;-70
2021/09/29 04:03:31;;;;;;;16.33;6.15;;;;;;;;;;10445420;28;20037;-70
2021/09/29 04:08:34;;;;;;;33.23;13.47;;;;;;;;;;10445375;28;20033;-70
2021/09/29 04:13:39;;;;;;;31.20;12.10;;;;;;;;;;10440998;28;20658;-69
2021/09/29 04:18:42;;;;;;;33.05;11.43;;;;;;;;;;10444276;28;20041;-69
2021/09/29 04:23:45;;;;;;;25.80;11.27;;;;;;;;;;10440263;28;20044;-70
2021/09/29 04:28:49;;;;;;;33.00;10.90;;;;;;;;;;10444231;28;20056;-70
2021/09/29 04:33:52;;;;;;;30.42;12.05;;;;;;;;;;10446698;28;20061;-70
2021/09/29 04:38:55;;;;;;;28.03;11.07;;;;;;;;;;10443884;28;20118;-69
2021/09/29 04:43:59;;;;;;;23.38;8.70;;;;;;;;;;10443946;28;20065;-69
2021/09/29 04:49:02;;;;;;;25.02;10.27;;;;;;;;;;10442446;28;20089;-70
2021/09/29 04:54:06;;;;;;;27.23;10.18;;;;;;;;;;10443717;28;20106;-70
2021/09/29 04:59:10;;;;;;;21.63;8.27;;;;;;;;;;10439067;28;20051;-69
2021/09/29 05:04:13;;;;;;;21.08;9.02;;;;;;;;;;10442398;28;20049;-71
2021/09/29 05:09:16;;;;;;;22.75;9.85;;;;;;;;;;10439599;28;20107;-70
2021/09/29 05:14:20;;;;;;;27.43;9.87;;;;;;;;;;10442604;28;20049;-69
2021/09/29 05:19:23;;;;;;;29.30;10.13;;;;;;;;;;10441155;28;20079;-69
2021/09/29 05:24:26;;;;;;;23.87;9.70;;;;;;;;;;10439886;28;20449;-70
2021/09/29 05:29:30;;;;;;;21.15;9.23;;;;;;;;;;10444984;28;20412;-71
2021/09/29 05:34:33;;;;;;;21.55;8.82;;;;;;;;;;10443920;28;20047;-71
2021/09/29 05:39:36;;;;;;;19.97;7.77;;;;;;;;;;10442019;28;20111;-70
2021/09/29 05:44:40;;;;;;;14.93;6.30;;;;;;;;;;10438756;28;20040;-69
2021/09/29 05:49:43;;;;;;;14.52;6.38;;;;;;;;;;10432972;28;20124;-70
2021/09/29 05:54:46;;;;;;;13.33;5.27;;;;;;;;;;10444656;28;20045;-71
2021/09/29 05:59:51;;;;;;;12.93;6.05;;;;;;;;;;10441028;28;20465;-68
2021/09/29 06:04:54;;;;;;;6.38;2.90;;;;;;;;;;10443144;28;20136;-70
2021/09/29 06:09:56;;;;;;;9.13;3.77;;;;;;;;;;10441121;28;20037;-69
2021/09/29 06:15:01;;;;;;;12.77;5.23;;;;;;;;;;10442134;28;20099;-70
2021/09/29 06:20:04;;;;;;;8.27;2.80;;;;;;;;;;10435344;28;20041;-69
2021/09/29 06:25:08;;;;;;;9.48;4.40;;;;;;;;;;10440201;28;20102;-73
2021/09/29 06:30:12;;;;;;;6.32;3.50;;;;;;;;;;10449004;28;20072;-70
2021/09/29 06:35:16;;;;;;;10.68;4.90;;;;;;;;;;10430016;28;20499;-70
2021/09/29 06:40:20;;;;;;;11.85;4.63;;;;;;;;;;10426611;28;20498;-70
2021/09/29 06:45:24;;;;;;;6.70;3.05;;;;;;;;;;10442083;28;20102;-68
2021/09/29 06:50:27;;;;;;;7.90;3.25;;;;;;;;;;10443422;28;20129;-69
2021/09/29 06:55:32;;;;;;;8.63;2.95;;;;;;;;;;10437462;28;20056;-69
2021/09/29 07:00:37;;;;;;;8.17;3.10;;;;;;;;;;10429713;28;20144;-71
2021/09/29 07:05:40;;;;;;;5.25;3.00;;;;;;;;;;10439005;28;20377;-70
2021/09/29 07:10:42;;;;;;;5.47;2.63;;;;;;;;;;10435125;28;20448;-69
2021/09/29 07:15:47;;;;;;;7.57;2.80;;;;;;;;;;10441602;28;20527;-71
2021/09/29 07:20:49;;;;;;;5.43;1.52;;;;;;;;;;10447438;28;20449;-69
2021/09/29 07:25:53;;;;;;;2.47;1.40;;;;;;;;;;10442401;28;20472;-70
2021/09/29 07:30:57;;;;;;;6.32;2.38;;;;;;;;;;10458768;28;20040;-69
2021/09/29 07:36:00;;;;;;;3.50;2.03;;;;;;;;;;10452920;28;20133;-70
2021/09/29 07:41:03;;;;;;;3.28;1.55;;;;;;;;;;10450505;28;20128;-69
2021/09/29 07:46:07;;;;;;;3.13;1.43;;;;;;;;;;10450899;28;20095;-68
2021/09/29 07:51:10;;;;;;;1.48;0.85;;;;;;;;;;10439048;28;20223;-70
2021/09/29 07:56:13;;;;;;;3.35;1.75;;;;;;;;;;10444765;28;20037;-69
2021/09/29 08:01:17;;;;;;;3.33;1.30;;;;;;;;;;10436524;28;20129;-70
2021/09/29 08:06:21;;;;;;;2.20;1.20;;;;;;;;;;10441179;28;20129;-68
2021/09/29 08:11:24;;;;;;;4.65;1.20;;;;;;;;;;10442430;28;20051;-71
2021/09/29 08:16:28;;;;;;;0.80;0.80;;;;;;;;;;10438942;28;20063;-70
2021/09/29 08:21:31;;;;;;;0.68;0.68;;;;;;;;;;10437467;28;20042;-70
2021/09/29 08:32:04;;;;;;;3.17;0.77;;;;;;;;;;10449759;28;20127;-72
2021/09/29 08:37:18;;;;;;;3.85;1.20;;;;;;;;;;10439832;28;20123;-71
2021/09/29 08:42:27;;;;;;;2.70;1.00;;;;;;;;;;10441002;28;20041;-70
2021/09/29 08:47:35;;;;;;;1.30;0.85;;;;;;;;;;10442883;28;20049;-68
2021/09/29 08:52:51;;;;;;;3.72;1.13;;;;;;;;;;10440826;28;20072;-70
2021/09/29 09:19:12;;;;;;;2.30;0.93;;;;;;;;;;10408171;28;20122;-70
2021/09/29 09:24:16;;;;;;;2.20;0.90;;;;;;;;;;10429439;28;20049;-69
2021/09/29 09:29:19;;;;;;;1.65;0.52;;;;;;;;;;10422233;28;20172;-70
2021/09/29 09:34:27;;;;;;;3.05;1.20;;;;;;;;;;10433299;28;20416;-70
2021/09/29 09:39:31;;;;;;;0.93;0.85;;;;;;;;;;10438813;28;20087;-69
2021/09/29 09:44:35;;;;;;;0.35;0.22;;;;;;;;;;10438879;28;20053;-70
2021/09/29 09:49:45;;;;;;;3.15;0.90;;;;;;;;;;10431965;28;20065;-70
2021/09/29 09:54:48;;;;;;;1.80;0.80;;;;;;;;;;10437692;28;20590;-69
2021/09/29 09:59:52;;;;;;;2.55;0.98;;;;;;;;;;10428513;28;20460;-68
2021/09/29 10:04:56;;;;;;;3.17;0.90;;;;;;;;;;10437420;28;20382;-69
2021/09/29 10:10:02;;;;;;;3.15;0.98;;;;;;;;;;10431600;28;20111;-71
2021/09/29 10:26:09;;;;;;;1.65;0.90;;;;;;;;;;10429188;28;20137;-71
2021/09/29 10:31:30;;;;;;;1.55;0.80;;;;;;;;;;10423087;28;20354;-71
2021/09/29 10:36:48;;;;;;;0.70;0.60;;;;;;;;;;10419535;28;20049;-70
2021/09/29 10:41:59;;;;;;;2.08;1.02;;;;;;;;;;10425397;28;20623;-70
2021/09/29 10:47:12;;;;;;;0.80;0.80;;;;;;;;;;10436658;28;20859;-71
2021/09/29 11:30:06;;;;;;;1.80;1.07;;;;;;;;;;10444180;28;20049;-71
2021/09/29 11:35:16;;;;;;;2.53;1.13;;;;;;;;;;10443632;28;20360;-71
2021/09/29 12:12:50;;;;;;;2.85;0.90;;;;;;;;;;10443592;28;20043;-69
2021/09/29 12:17:53;;;;;;;4.05;1.30;;;;;;;;;;10435241;28;20815;-70
2021/09/29 12:22:57;;;;;;;4.03;1.35;;;;;;;;;;10438707;28;20053;-70
2021/09/29 12:28:19;;;;;;;4.18;1.40;;;;;;;;;;10431584;28;20405;-71
2021/09/29 12:33:34;;;;;;;2.97;1.00;;;;;;;;;;10446524;28;20048;-70
2021/09/29 12:38:51;;;;;;;1.83;1.00;;;;;;;;;;10439434;28;20029;-71
2021/09/29 12:44:01;;;;;;;1.48;0.82;;;;;;;;;;10443401;28;20059;-70
2021/09/29 12:49:11;;;;;;;2.75;1.10;;;;;;;;;;10425135;28;20111;-71
2021/09/29 12:54:18;;;;;;;4.15;1.10;;;;;;;;;;10441046;28;20151;-69
2021/09/29 12:59:22;;;;;;;1.85;1.10;;;;;;;;;;10440912;28;20053;-70
2021/09/29 13:04:25;;;;;;;2.80;1.02;;;;;;;;;;10438214;28;20049;-69
2021/09/29 13:09:28;;;;;;;0.95;0.85;;;;;;;;;;10434108;28;20064;-70
2021/09/29 13:14:32;;;;;;;3.05;1.20;;;;;;;;;;10438943;28;20071;-70
2021/09/29 13:19:41;;;;;;;3.60;1.30;;;;;;;;;;10434094;28;20044;-71
2021/09/29 13:25:02;;;;;;;4.13;2.80;;;;;;;;;;10435683;28;20052;-70
2021/09/29 13:41:04;;;;;;;2.83;1.33;;;;;;;;;;10429521;28;20041;-70
2021/09/29 13:46:09;;;;;;;4.30;1.20;;;;;;;;;;10438945;28;20064;-71
2021/09/29 13:51:12;;;;;;;2.28;1.20;;;;;;;;;;10437329;28;20512;-69
2021/09/29 13:56:17;;;;;;;2.90;1.33;;;;;;;;;;10437986;28;20446;-71
2021/09/29 14:33:27;;;;;;;2.20;0.88;;;;;;;;;;10439565;28;20049;-71
2021/09/29 14:38:30;;;;;;;3.30;1.35;;;;;;;;;;10432748;28;20642;-70
2021/09/29 14:43:36;;;;;;;2.45;1.02;;;;;;;;;;10419856;28;20218;-70
2021/09/29 14:48:40;;;;;;;2.35;0.93;;;;;;;;;;10428837;28;20148;-70
2021/09/29 14:53:48;;;;;;;1.20;0.90;;;;;;;;;;10439470;28;20107;-72
2021/09/29 14:58:51;;;;;;;2.47;1.10;;;;;;;;;;10450663;28;20041;-73
2021/09/29 15:03:57;;;;;;;1.60;1.50;;;;;;;;;;10452021;28;20037;-73
2021/09/29 15:09:00;;;;;;;2.53;1.30;;;;;;;;;;10434495;28;20041;-72
2021/09/29 15:14:09;;;;;;;1.00;0.85;;;;;;;;;;10431082;28;20041;-72
2021/09/29 15:30:16;;;;;;;2.20;1.38;;;;;;;;;;10435788;28;20048;-74
2021/09/29 15:46:37;;;;;;;0.88;0.65;;;;;;;;;;10411824;28;20065;-72
2021/09/29 15:51:48;;;;;;;1.48;0.93;;;;;;;;;;10418758;28;20497;-70
2021/09/29 16:02:19;;;;;;;3.20;1.15;;;;;;;;;;10363199;28;20381;-72
2021/09/29 16:07:33;;;;;;;1.33;0.80;;;;;;;;;;10446482;28;20099;-72
2021/09/29 16:18:17;;;;;;;3.13;1.05;;;;;;;;;;10434156;28;20041;-72
2021/09/29 16:34:21;;;;;;;3.45;1.50;;;;;;;;;;10354983;28;20095;-73
2021/09/29 16:39:25;;;;;;;5.57;1.20;;;;;;;;;;10450434;28;20106;-71
2021/09/29 16:44:28;;;;;;;2.65;1.42;;;;;;;;;;10439225;28;20040;-71
2021/09/29 16:49:31;;;;;;;10.50;2.90;;;;;;;;;;10435283;28;20112;-72
2021/09/29 16:54:35;;;;;;;3.67;1.23;;;;;;;;;;10429389;28;20047;-73
2021/09/29 16:59:48;;;;;;;2.60;1.20;;;;;;;;;;10437011;28;20143;-73
2021/09/29 17:04:51;;;;;;;3.17;1.30;;;;;;;;;;10440325;28;20143;-73
2021/09/29 17:09:55;;;;;;;4.55;1.90;;;;;;;;;;10437245;28;20039;-72
2021/09/29 17:14:58;;;;;;;2.67;1.50;;;;;;;;;;10439342;28;20067;-72
2021/09/29 17:20:01;;;;;;;3.08;1.63;;;;;;;;;;10439294;28;20643;-73
2021/09/29 17:25:06;;;;;;;2.50;1.40;;;;;;;;;;10436770;28;20041;-74
2021/09/29 17:30:10;;;;;;;3.80;1.25;;;;;;;;;;10437941;28;20380;-73
2021/09/29 17:35:17;;;;;;;2.00;0.90;;;;;;;;;;10437867;28;20086;-73
2021/09/29 17:56:43;;;;;;;2.40;1.00;;;;;;;;;;10423249;28;20513;-73
2021/09/29 18:01:45;;;;;;;2.42;1.05;;;;;;;;;;10416300;28;20052;-75
2021/09/29 18:07:09;;;;;;;1.67;0.77;;;;;;;;;;10432255;28;20060;-73
2021/09/29 18:12:13;;;;;;;1.88;0.88;;;;;;;;;;10435548;28;20398;-72
2021/09/29 18:17:16;;;;;;;2.85;1.02;;;;;;;;;;10434945;28;20497;-71
2021/09/29 18:22:19;;;;;;;1.07;0.37;;;;;;;;;;10435391;28;20415;-72
2021/09/29 18:27:23;;;;;;;1.00;0.45;;;;;;;;;;10428482;28;21012;-73
2021/09/29 18:32:27;;;;;;;1.10;0.40;;;;;;;;;;10433528;28;20045;-73
2021/09/29 18:37:30;;;;;;;1.00;0.22;;;;;;;;;;10418794;28;20257;-71
2021/09/29 18:42:46;;;;;;;1.38;0.40;;;;;;;;;;10431141;28;20041;-71
2021/09/29 18:47:49;;;;;;;1.00;0.80;;;;;;;;;;10457116;28;20138;-70
2021/09/29 18:52:52;;;;;;;1.65;0.90;;;;;;;;;;10431579;28;20174;-73
2021/09/29 19:08:39;;;;;;;1.17;0.43;;;;;;;;;;10440512;28;20423;-71
2021/09/29 19:13:44;;;;;;;0.82;0.57;;;;;;;;;;10426884;28;20056;-72
2021/09/29 19:18:49;;;;;;;0.40;0.38;;;;;;;;;;10450146;28;20059;-70
2021/09/29 19:23:52;;;;;;;1.08;0.60;;;;;;;;;;10448434;28;20056;-72
2021/09/29 19:28:57;;;;;;;1.05;0.50;;;;;;;;;;10450551;28;20036;-72
2021/09/29 19:34:02;;;;;;;1.77;0.35;;;;;;;;;;10453985;28;20167;-72
2021/09/29 19:39:06;;;;;;;0.82;0.40;;;;;;;;;;10451289;28;20491;-71
2021/09/29 19:44:15;;;;;;;3.05;0.68;;;;;;;;;;10445574;28;20459;-72
2021/09/29 19:49:25;;;;;;;1.30;0.77;;;;;;;;;;10437346;28;20071;-72
2021/09/29 20:10:30;;;;;;;1.30;0.57;;;;;;;;;;10429764;28;20440;-72
2021/09/29 20:15:35;;;;;;;0.82;0.60;;;;;;;;;;10434076;28;20286;-71
2021/09/29 20:20:55;;;;;;;0.68;0.50;;;;;;;;;;10433675;28;20144;-71
2021/09/29 20:25:58;;;;;;;0.75;0.65;;;;;;;;;;10437242;28;20049;-71
2021/09/29 20:31:02;;;;;;;2.70;1.20;;;;;;;;;;10440148;28;20060;-73
2021/09/29 20:36:22;;;;;;;1.60;0.90;;;;;;;;;;10436637;28;20485;-72
2021/09/29 20:46:47;;;;;;;2.53;1.23;;;;;;;;;;10434492;28;20416;-71
2021/09/29 20:51:50;;;;;;;0.98;0.43;;;;;;;;;;10436198;28;20459;-73
2021/09/29 20:56:53;;;;;;;0.82;0.60;;;;;;;;;;10432771;28;20102;-71
2021/09/29 21:01:57;;;;;;;1.35;0.60;;;;;;;;;;10435873;28;20447;-72
2021/09/29 21:07:00;;;;;;;1.58;0.63;;;;;;;;;;10440634;28;20033;-73
2021/09/29 21:12:09;;;;;;;0.53;0.30;;;;;;;;;;10443747;28;20041;-77
2021/09/29 21:22:34;;;;;;;0.63;0.40;;;;;;;;;;10445383;28;20083;-70
2021/09/29 21:27:37;;;;;;;0.70;0.40;;;;;;;;;;10440619;28;20544;-70
2021/09/29 21:32:41;;;;;;;1.90;0.60;;;;;;;;;;10441220;28;20130;-70
2021/09/29 21:37:51;;;;;;;1.58;0.50;;;;;;;;;;10453527;28;20045;-71
2021/09/29 22:04:31;;;;;;;1.30;0.70;;;;;;;;;;10417703;28;20049;-71
2021/09/29 23:08:36;;;;;;;0.28;0.25;;;;;;;;;;10451092;28;20040;-71
2021/09/29 23:13:51;;;;;;;0.32;0.30;;;;;;;;;;10453993;28;20107;-72
2021/09/29 23:34:56;;;;;;;0.75;0.30;;;;;;;;;;10452465;28;20041;-72
2021/09/29 23:40:01;;;;;;;0.95;0.40;;;;;;;;;;10449230;28;20041;-71
2021/09/29 23:45:04;;;;;;;0.65;0.50;;;;;;;;;;10449150;28;20077;-70
2021/09/29 23:50:08;;;;;;;0.88;0.45;;;;;;;;;;10449707;28;20041;-71
2021/09/29 23:55:13;;;;;;;1.13;0.70;;;;;;;;;;10451379;28;20076;-71
